Time;durP1;ratioP1;P1;durP2;ratioP2;P2;SDS_P1;SDS_P2;PMS_P1;PMS_P2;Temp;Humidity;BMP_temperature;BMP_pressure;BME280_temperature;BME280_humidity;BME280_pressure;Samples;Min_cycle;Max_cycle;Signal;HPM_P1;HPM_P2
2023/11/21 00:01:27;;;;;;;;;;;6.30;74.80;;;;;;5002233;28;82453;-44
2023/11/21 00:03:55;;;;;;;;;;;6.20;74.90;;;;;;5003441;28;81931;-44
2023/11/21 00:06:20;;;;;;;;;;;6.30;74.90;;;;;;4996485;28;83442;-44
2023/11/21 00:08:46;;;;;;;;;;;6.20;74.80;;;;;;4998087;28;81989;-44
2023/11/21 00:11:11;;;;;;;;;;;6.20;74.70;;;;;;5000694;28;81968;-44
2023/11/21 00:13:37;;;;;;;;;;;6.30;74.70;;;;;;4997075;28;82278;-44
2023/11/21 00:16:04;;;;;;;;;;;6.20;74.70;;;;;;5001109;28;81850;-44
2023/11/21 00:18:29;;;;;;;;;;;6.20;74.80;;;;;;5001267;28;82802;-44
2023/11/21 00:20:55;;;;;;;;;;;6.20;74.70;;;;;;4999518;28;82444;-45
2023/11/21 00:23:20;;;;;;;;;;;6.20;74.80;;;;;;5007793;28;81802;-46
2023/11/21 00:25:46;;;;;;;;;;;6.20;74.70;;;;;;5001263;28;81813;-43
2023/11/21 00:28:12;;;;;;;;;;;6.20;74.80;;;;;;5003044;28;81947;-44
2023/11/21 00:30:37;;;;;;;;;;;6.10;74.70;;;;;;5001241;28;82892;-44
2023/11/21 00:33:04;;;;;;;;;;;6.20;74.80;;;;;;5002075;28;83449;-44
2023/11/21 00:35:29;;;;;;;;;;;6.20;74.70;;;;;;5004358;28;81901;-44
2023/11/21 00:37:55;;;;;;;;;;;6.20;74.80;;;;;;5003572;28;81863;-44
2023/11/21 00:40:22;;;;;;;;;;;6.20;74.80;;;;;;5001087;28;83370;-45
2023/11/21 00:42:47;;;;;;;;;;;6.20;74.70;;;;;;5005680;28;82038;-44
2023/11/21 00:45:13;;;;;;;;;;;6.20;74.80;;;;;;5003682;28;82591;-44
2023/11/21 00:47:39;;;;;;;;;;;6.20;74.70;;;;;;5004602;28;81174;-44
2023/11/21 00:50:06;;;;;;;;;;;6.20;74.60;;;;;;4999380;28;82180;-45
2023/11/21 00:52:32;;;;;;;;;;;6.10;74.60;;;;;;5001395;28;83535;-44
2023/11/21 00:54:59;;;;;;;;;;;6.10;74.70;;;;;;4999384;28;82780;-45
2023/11/21 00:57:28;;;;;;;;;;;6.10;74.60;;;;;;5002300;28;84016;-44
2023/11/21 00:59:54;;;;;;;;;;;6.10;74.60;;;;;;4999039;28;83899;-44
2023/11/21 01:02:20;;;;;;;;;;;6.10;74.80;;;;;;4999926;28;81945;-45
2023/11/21 01:04:45;;;;;;;;;;;6.10;74.70;;;;;;5005887;28;81997;-45
2023/11/21 01:07:11;;;;;;;;;;;6.10;74.50;;;;;;4999845;28;81957;-44
2023/11/21 01:09:36;;;;;;;;;;;6.10;74.60;;;;;;5002683;28;81917;-45
2023/11/21 01:12:02;;;;;;;;;;;6.10;74.60;;;;;;5001754;28;81708;-45
2023/11/21 01:14:27;;;;;;;;;;;6.10;74.70;;;;;;5005021;28;82028;-45
2023/11/21 01:16:53;;;;;;;;;;;6.00;74.70;;;;;;5003042;28;82281;-46
2023/11/21 01:19:19;;;;;;;;;;;6.10;74.60;;;;;;5002017;28;83273;-45
2023/11/21 01:21:44;;;;;;;;;;;6.10;74.60;;;;;;5006525;28;81979;-48
2023/11/21 01:24:10;;;;;;;;;;;6.10;74.60;;;;;;5002211;28;81912;-46
2023/11/21 01:26:35;;;;;;;;;;;6.10;74.60;;;;;;5005735;28;82346;-43
2023/11/21 01:29:01;;;;;;;;;;;6.00;74.50;;;;;;5002727;28;83059;-44
2023/11/21 01:31:29;;;;;;;;;;;6.00;74.60;;;;;;4999030;28;82597;-44
2023/11/21 01:33:55;;;;;;;;;;;6.00;74.60;;;;;;4999167;28;81992;-43
2023/11/21 01:36:21;;;;;;;;;;;6.00;74.70;;;;;;5003420;28;81783;-44
2023/11/21 01:38:47;;;;;;;;;;;6.00;74.60;;;;;;5004369;28;83654;-43
2023/11/21 01:41:14;;;;;;;;;;;6.00;74.60;;;;;;5002624;28;81970;-44
2023/11/21 01:43:39;;;;;;;;;;;6.00;74.60;;;;;;5002567;28;82854;-42
2023/11/21 01:46:06;;;;;;;;;;;6.00;74.50;;;;;;5003621;28;83604;-44
2023/11/21 01:48:31;;;;;;;;;;;6.00;74.40;;;;;;5004555;28;82039;-43
2023/11/21 01:50:57;;;;;;;;;;;5.90;74.40;;;;;;4998531;28;81962;-44
2023/11/21 01:53:25;;;;;;;;;;;6.00;74.70;;;;;;5003795;28;81958;-44
2023/11/21 01:55:50;;;;;;;;;;;6.00;74.40;;;;;;4996355;28;82216;-43
2023/11/21 01:58:16;;;;;;;;;;;6.00;74.50;;;;;;5000862;28;81967;-43
2023/11/21 02:00:42;;;;;;;;;;;6.00;74.60;;;;;;5005866;28;81707;-43
2023/11/21 02:03:10;;;;;;;;;;;5.90;74.40;;;;;;4997782;28;82264;-43
2023/11/21 02:05:35;;;;;;;;;;;5.90;74.40;;;;;;4998906;28;83428;-43
2023/11/21 02:08:02;;;;;;;;;;;6.00;74.50;;;;;;5000320;28;82927;-43
2023/11/21 02:10:29;;;;;;;;;;;5.90;74.50;;;;;;5001015;28;83859;-44
2023/11/21 02:12:56;;;;;;;;;;;5.90;74.50;;;;;;5001471;28;82366;-43
2023/11/21 02:15:22;;;;;;;;;;;5.90;74.40;;;;;;5002603;28;82769;-43
2023/11/21 02:17:51;;;;;;;;;;;5.90;74.50;;;;;;5003067;28;83687;-43
2023/11/21 02:20:17;;;;;;;;;;;5.90;74.40;;;;;;4998777;28;81966;-43
2023/11/21 02:22:43;;;;;;;;;;;5.90;74.50;;;;;;5002450;28;83737;-42
2023/11/21 02:25:09;;;;;;;;;;;5.90;74.50;;;;;;5000615;28;81599;-43
2023/11/21 02:27:34;;;;;;;;;;;5.90;74.40;;;;;;5000355;28;81732;-44
2023/11/21 02:30:01;;;;;;;;;;;5.90;74.50;;;;;;5007121;28;82128;-43
2023/11/21 02:32:26;;;;;;;;;;;5.90;74.40;;;;;;5002204;28;83536;-44
2023/11/21 02:34:53;;;;;;;;;;;5.90;74.40;;;;;;5004204;28;82761;-43
2023/11/21 02:37:19;;;;;;;;;;;5.90;74.40;;;;;;4999390;28;82015;-44
2023/11/21 02:39:44;;;;;;;;;;;5.90;74.40;;;;;;5001664;28;81926;-45
2023/11/21 02:42:10;;;;;;;;;;;5.80;74.30;;;;;;5000544;28;81843;-44
2023/11/21 02:44:35;;;;;;;;;;;5.80;74.40;;;;;;4999545;28;82528;-44
2023/11/21 02:47:01;;;;;;;;;;;5.80;74.40;;;;;;5000981;28;83294;-44
2023/11/21 02:49:29;;;;;;;;;;;5.80;74.50;;;;;;5001099;28;81286;-44
2023/11/21 02:51:54;;;;;;;;;;;5.80;74.40;;;;;;5001780;28;81866;-44
2023/11/21 02:54:21;;;;;;;;;;;5.80;74.30;;;;;;5003234;28;81829;-44
2023/11/21 02:56:47;;;;;;;;;;;5.80;74.30;;;;;;5000734;28;83520;-44
2023/11/21 02:59:13;;;;;;;;;;;5.80;74.40;;;;;;5003044;28;81855;-44
2023/11/21 03:01:38;;;;;;;;;;;5.80;74.40;;;;;;5000165;28;82962;-44
2023/11/21 03:04:04;;;;;;;;;;;5.80;74.40;;;;;;5001866;28;82240;-44
2023/11/21 03:06:30;;;;;;;;;;;5.80;74.30;;;;;;5001342;28;81811;-44
2023/11/21 03:08:55;;;;;;;;;;;5.80;74.30;;;;;;5000898;28;82902;-43
2023/11/21 03:11:21;;;;;;;;;;;5.80;74.30;;;;;;5004774;28;82397;-43
2023/11/21 03:13:46;;;;;;;;;;;5.70;74.30;;;;;;5005351;28;81246;-42
2023/11/21 03:16:12;;;;;;;;;;;5.70;74.30;;;;;;4998037;28;82433;-44
2023/11/21 03:18:38;;;;;;;;;;;5.70;74.40;;;;;;5000848;28;81873;-44
2023/11/21 03:21:04;;;;;;;;;;;5.70;74.30;;;;;;5006422;28;82954;-43
2023/11/21 03:23:30;;;;;;;;;;;5.70;74.40;;;;;;5001438;28;83470;-44
2023/11/21 03:25:55;;;;;;;;;;;5.70;74.40;;;;;;5001595;28;82075;-43
2023/11/21 03:28:21;;;;;;;;;;;5.70;74.30;;;;;;5001142;28;81812;-43
2023/11/21 03:30:47;;;;;;;;;;;5.70;74.30;;;;;;4998039;28;82809;-44
2023/11/21 03:33:12;;;;;;;;;;;5.70;74.30;;;;;;5001576;28;81794;-44
2023/11/21 03:35:38;;;;;;;;;;;5.70;74.30;;;;;;5000717;28;81951;-44
2023/11/21 03:38:04;;;;;;;;;;;5.70;74.20;;;;;;5003023;28;81705;-43
2023/11/21 03:40:31;;;;;;;;;;;5.70;74.30;;;;;;4997309;28;82124;-44
2023/11/21 03:42:57;;;;;;;;;;;5.70;74.20;;;;;;4997836;28;83521;-43
2023/11/21 03:45:22;;;;;;;;;;;5.70;74.20;;;;;;5001857;28;82974;-43
2023/11/21 03:47:48;;;;;;;;;;;5.70;74.30;;;;;;4999855;28;82694;-42
2023/11/21 03:50:13;;;;;;;;;;;5.60;74.30;;;;;;4993375;28;82499;-44
2023/11/21 03:52:39;;;;;;;;;;;5.60;74.20;;;;;;5001316;28;81900;-44
2023/11/21 03:55:05;;;;;;;;;;;5.60;74.30;;;;;;5000302;28;82858;-44
2023/11/21 03:57:30;;;;;;;;;;;5.70;74.20;;;;;;5003091;28;82365;-43
2023/11/21 03:59:56;;;;;;;;;;;5.60;74.20;;;;;;5001959;28;81803;-43
2023/11/21 04:02:21;;;;;;;;;;;5.60;74.20;;;;;;5004647;28;81371;-44
2023/11/21 04:04:47;;;;;;;;;;;5.60;74.30;;;;;;5008448;28;81805;-43
2023/11/21 04:07:13;;;;;;;;;;;5.60;74.20;;;;;;5004386;28;81880;-43
2023/11/21 04:09:39;;;;;;;;;;;5.60;74.10;;;;;;5001098;28;84597;-43
2023/11/21 04:12:04;;;;;;;;;;;5.60;74.30;;;;;;5003848;28;82092;-43
2023/11/21 04:14:30;;;;;;;;;;;5.50;74.30;;;;;;5005321;28;82871;-42
2023/11/21 04:16:56;;;;;;;;;;;5.60;74.40;;;;;;5008437;28;83594;-43
2023/11/21 04:19:21;;;;;;;;;;;5.50;74.40;;;;;;5003408;28;82014;-44
2023/11/21 04:21:47;;;;;;;;;;;5.60;74.20;;;;;;5005915;28;81995;-44
2023/11/21 04:24:12;;;;;;;;;;;5.60;74.10;;;;;;5003741;28;82056;-42
2023/11/21 04:26:38;;;;;;;;;;;5.50;74.20;;;;;;5005487;28;81750;-43
2023/11/21 04:29:04;;;;;;;;;;;5.50;74.10;;;;;;5004358;28;83481;-44
2023/11/21 04:31:30;;;;;;;;;;;5.50;74.10;;;;;;5001040;28;81967;-43
2023/11/21 04:33:56;;;;;;;;;;;5.50;74.00;;;;;;5004200;28;82880;-44
2023/11/21 04:36:21;;;;;;;;;;;5.60;74.10;;;;;;5005065;28;83582;-42
2023/11/21 04:38:47;;;;;;;;;;;5.60;74.00;;;;;;5003261;28;81968;-42
2023/11/21 04:41:12;;;;;;;;;;;5.60;74.00;;;;;;5000325;28;82374;-43
2023/11/21 04:43:38;;;;;;;;;;;5.50;74.10;;;;;;5000493;28;82016;-44
2023/11/21 04:46:03;;;;;;;;;;;5.50;74.10;;;;;;5000324;28;82045;-44
2023/11/21 04:48:29;;;;;;;;;;;5.50;74.20;;;;;;5005634;28;82458;-43
2023/11/21 04:50:54;;;;;;;;;;;5.50;74.10;;;;;;4999907;28;81448;-45
2023/11/21 04:53:20;;;;;;;;;;;5.50;74.70;;;;;;5001168;28;81920;-43
2023/11/21 04:55:46;;;;;;;;;;;5.50;74.20;;;;;;5002734;28;84028;-43
2023/11/21 04:58:12;;;;;;;;;;;5.40;74.10;;;;;;5000892;28;82747;-43
2023/11/21 05:00:37;;;;;;;;;;;5.50;74.10;;;;;;5002243;28;82228;-44
2023/11/21 05:03:04;;;;;;;;;;;5.50;74.10;;;;;;5002646;28;81949;-44
2023/11/21 05:05:30;;;;;;;;;;;5.50;74.10;;;;;;5001047;28;82836;-44
2023/11/21 05:07:55;;;;;;;;;;;5.40;74.10;;;;;;5003374;28;82434;-43
2023/11/21 05:10:22;;;;;;;;;;;5.40;74.10;;;;;;5003211;28;81925;-43
2023/11/21 05:12:49;;;;;;;;;;;5.40;74.10;;;;;;5002100;28;83455;-42
2023/11/21 05:15:16;;;;;;;;;;;5.40;74.10;;;;;;5003320;28;82793;-43
2023/11/21 05:17:42;;;;;;;;;;;5.40;74.00;;;;;;5006787;28;82242;-44
2023/11/21 05:20:08;;;;;;;;;;;5.40;74.10;;;;;;4999695;28;82169;-43
2023/11/21 05:22:34;;;;;;;;;;;5.40;74.00;;;;;;5012255;28;84580;-43
2023/11/21 05:24:59;;;;;;;;;;;5.40;74.10;;;;;;4998963;28;82803;-42
2023/11/21 05:27:25;;;;;;;;;;;5.40;74.00;;;;;;5005134;28;82531;-44
2023/11/21 05:29:51;;;;;;;;;;;5.40;74.00;;;;;;5001507;28;81986;-43
2023/11/21 05:32:17;;;;;;;;;;;5.40;74.10;;;;;;4999480;28;81894;-42
2023/11/21 05:34:43;;;;;;;;;;;5.40;74.10;;;;;;4997524;28;85022;-44
2023/11/21 05:37:08;;;;;;;;;;;5.40;74.00;;;;;;5000529;28;82020;-43
2023/11/21 05:39:34;;;;;;;;;;;5.30;74.00;;;;;;5003689;28;81813;-43
2023/11/21 05:41:59;;;;;;;;;;;5.40;74.00;;;;;;5002923;28;82471;-42
2023/11/21 05:44:25;;;;;;;;;;;5.40;74.00;;;;;;5009786;28;82046;-42
2023/11/21 05:46:51;;;;;;;;;;;5.30;73.90;;;;;;4996077;28;83329;-44
2023/11/21 05:49:16;;;;;;;;;;;5.30;73.90;;;;;;5001377;28;81881;-44
2023/11/21 05:51:42;;;;;;;;;;;5.30;74.00;;;;;;5000262;28;82620;-43
2023/11/21 05:54:07;;;;;;;;;;;5.30;74.00;;;;;;5001466;28;83425;-43
2023/11/21 05:56:33;;;;;;;;;;;5.30;74.00;;;;;;4997244;28;81956;-42
2023/11/21 05:58:59;;;;;;;;;;;5.30;74.00;;;;;;5002399;28;82052;-42
2023/11/21 06:01:28;;;;;;;;;;;5.30;74.00;;;;;;5002418;28;83538;-43
2023/11/21 06:03:54;;;;;;;;;;;5.30;73.90;;;;;;4998004;28;81322;-44
2023/11/21 06:06:20;;;;;;;;;;;5.30;73.90;;;;;;5003621;28;82107;-44
2023/11/21 06:08:45;;;;;;;;;;;5.30;73.80;;;;;;5002336;28;81992;-43
2023/11/21 06:11:11;;;;;;;;;;;5.30;73.90;;;;;;4996838;28;83335;-42
2023/11/21 06:13:37;;;;;;;;;;;5.30;74.10;;;;;;5006137;28;85167;-44
2023/11/21 06:16:04;;;;;;;;;;;5.30;73.90;;;;;;4999861;28;82558;-44
2023/11/21 06:18:30;;;;;;;;;;;5.30;73.90;;;;;;5000824;28;83029;-42
2023/11/21 06:20:55;;;;;;;;;;;5.30;74.00;;;;;;5004945;28;82392;-43
2023/11/21 06:23:21;;;;;;;;;;;5.30;74.00;;;;;;5002570;28;82859;-43
2023/11/21 06:25:47;;;;;;;;;;;5.30;73.80;;;;;;4999379;28;81977;-43
2023/11/21 06:28:12;;;;;;;;;;;5.30;73.90;;;;;;5001609;28;81829;-43
2023/11/21 06:30:38;;;;;;;;;;;5.30;74.00;;;;;;5005678;28;82452;-42
2023/11/21 06:33:03;;;;;;;;;;;5.30;73.90;;;;;;5000833;28;82604;-43
2023/11/21 06:35:32;;;;;;;;;;;5.30;73.90;;;;;;5006365;28;83644;-44
2023/11/21 06:37:58;;;;;;;;;;;5.30;73.90;;;;;;5005308;28;83929;-42
2023/11/21 06:40:24;;;;;;;;;;;5.30;73.90;;;;;;5001866;28;82428;-43
2023/11/21 06:42:50;;;;;;;;;;;5.20;73.90;;;;;;4999758;28;83616;-44
2023/11/21 06:45:16;;;;;;;;;;;5.30;74.00;;;;;;4998426;28;81861;-43
2023/11/21 06:47:41;;;;;;;;;;;5.30;73.90;;;;;;5003177;28;83339;-43
2023/11/21 06:50:07;;;;;;;;;;;5.30;74.00;;;;;;4997578;28;81927;-43
2023/11/21 06:52:33;;;;;;;;;;;5.20;73.90;;;;;;4999174;28;81141;-42
2023/11/21 06:54:58;;;;;;;;;;;5.20;73.90;;;;;;5001809;28;82040;-43
2023/11/21 06:57:24;;;;;;;;;;;5.20;73.90;;;;;;5003086;28;82947;-44
2023/11/21 06:59:50;;;;;;;;;;;5.30;74.00;;;;;;4998364;28;84661;-43
2023/11/21 07:02:18;;;;;;;;;;;5.20;74.00;;;;;;5002658;28;83317;-43
2023/11/21 07:04:46;;;;;;;;;;;5.20;73.90;;;;;;5001320;28;82726;-43
2023/11/21 07:07:12;;;;;;;;;;;5.20;74.00;;;;;;5005483;28;82525;-43
2023/11/21 07:09:37;;;;;;;;;;;5.20;73.90;;;;;;5001044;28;82066;-43
2023/11/21 07:12:05;;;;;;;;;;;5.20;73.90;;;;;;5000836;28;82468;-42
2023/11/21 07:14:32;;;;;;;;;;;5.20;74.00;;;;;;4997607;28;81921;-44
2023/11/21 07:16:57;;;;;;;;;;;5.20;74.00;;;;;;5001527;28;81552;-43
2023/11/21 07:19:23;;;;;;;;;;;5.20;74.00;;;;;;4996207;28;83144;-43
2023/11/21 07:21:50;;;;;;;;;;;5.20;74.00;;;;;;4999772;28;82018;-43
2023/11/21 07:24:16;;;;;;;;;;;5.20;74.00;;;;;;4995254;28;82850;-43
2023/11/21 07:26:42;;;;;;;;;;;5.20;74.00;;;;;;5001993;28;82958;-43
2023/11/21 07:29:07;;;;;;;;;;;5.20;74.00;;;;;;4999728;28;81996;-42
2023/11/21 07:31:35;;;;;;;;;;;5.20;74.10;;;;;;5006032;28;82007;-44
2023/11/21 07:34:01;;;;;;;;;;;5.20;74.00;;;;;;5009005;28;81985;-43
2023/11/21 07:36:27;;;;;;;;;;;5.20;74.00;;;;;;5005902;28;81889;-43
2023/11/21 07:38:52;;;;;;;;;;;5.20;74.00;;;;;;4999924;28;87451;-44
2023/11/21 07:41:18;;;;;;;;;;;5.20;74.00;;;;;;4996923;28;86261;-42
2023/11/21 07:43:45;;;;;;;;;;;5.20;74.10;;;;;;5000039;28;86893;-42
2023/11/21 07:46:12;;;;;;;;;;;5.20;74.10;;;;;;4999549;28;87387;-43
2023/11/21 07:48:46;;;;;;;;;;;5.10;74.10;;;;;;5001400;28;88019;-43
2023/11/21 07:51:13;;;;;;;;;;;5.20;74.10;;;;;;4994600;28;88711;-43
2023/11/21 07:53:39;;;;;;;;;;;5.20;74.20;;;;;;5001882;28;88589;-43
2023/11/21 07:56:08;;;;;;;;;;;5.20;74.00;;;;;;5000569;28;87884;-43
2023/11/21 07:58:35;;;;;;;;;;;5.20;74.00;;;;;;4995022;28;89306;-43
2023/11/21 08:01:01;;;;;;;;;;;5.20;74.00;;;;;;4996807;28;87272;-44
2023/11/21 08:03:27;;;;;;;;;;;5.20;74.10;;;;;;4999393;28;86864;-44
2023/11/21 08:05:53;;;;;;;;;;;5.20;74.00;;;;;;4998946;28;86638;-42
2023/11/21 08:08:18;;;;;;;;;;;5.20;73.90;;;;;;4997773;28;87142;-44
2023/11/21 08:10:48;;;;;;;;;;;5.20;73.90;;;;;;5000441;28;86956;-42
2023/11/21 08:13:15;;;;;;;;;;;5.20;73.90;;;;;;4998854;28;88612;-42
2023/11/21 08:15:45;;;;;;;;;;;5.20;74.00;;;;;;5004862;28;87087;-43
2023/11/21 08:18:11;;;;;;;;;;;5.20;74.00;;;;;;4999998;28;87683;-42
2023/11/21 08:20:39;;;;;;;;;;;5.20;73.90;;;;;;4997497;28;86957;-42
2023/11/21 08:23:05;;;;;;;;;;;5.20;74.00;;;;;;4999459;28;87855;-42
2023/11/21 08:25:31;;;;;;;;;;;5.20;74.00;;;;;;4997164;28;88690;-43
2023/11/21 08:27:57;;;;;;;;;;;5.20;74.00;;;;;;5003109;28;86828;-43
2023/11/21 08:30:24;;;;;;;;;;;5.20;73.90;;;;;;5001008;28;87011;-43
2023/11/21 08:32:52;;;;;;;;;;;5.20;74.00;;;;;;4997028;28;88514;-43
2023/11/21 08:35:17;;;;;;;;;;;5.20;74.00;;;;;;4999913;28;86984;-42
2023/11/21 08:37:43;;;;;;;;;;;5.20;74.10;;;;;;4999380;28;87989;-42
2023/11/21 08:40:09;;;;;;;;;;;5.20;74.10;;;;;;4993961;28;86898;-43
2023/11/21 08:42:35;;;;;;;;;;;5.20;74.00;;;;;;5000052;28;87093;-43
2023/11/21 08:45:00;;;;;;;;;;;5.20;74.00;;;;;;4994229;28;87778;-43
2023/11/21 08:47:26;;;;;;;;;;;5.20;74.10;;;;;;4996943;28;86855;-44
2023/11/21 08:49:54;;;;;;;;;;;5.20;74.00;;;;;;5000962;28;88533;-44
2023/11/21 08:52:23;;;;;;;;;;;5.20;74.00;;;;;;4997779;28;86894;-43
2023/11/21 08:54:55;;;;;;;;;;;5.20;74.00;;;;;;4997114;28;86289;-43
2023/11/21 08:57:24;;;;;;;;;;;5.20;74.10;;;;;;5000053;28;87161;-43
2023/11/21 08:59:55;;;;;;;;;;;5.20;74.10;;;;;;4993866;28;87191;-44
2023/11/21 09:02:23;;;;;;;;;;;5.20;74.20;;;;;;4994730;28;88637;-44
2023/11/21 09:04:48;;;;;;;;;;;5.20;74.10;;;;;;4996285;28;87420;-43
2023/11/21 09:07:14;;;;;;;;;;;5.20;74.10;;;;;;4997177;28;87062;-42
2023/11/21 09:09:39;;;;;;;;;;;5.20;74.10;;;;;;5000157;28;86956;-44
2023/11/21 09:12:05;;;;;;;;;;;5.20;74.00;;;;;;4997968;28;87431;-43
2023/11/21 09:14:31;;;;;;;;;;;5.20;74.20;;;;;;4995987;28;87137;-43
2023/11/21 09:16:56;;;;;;;;;;;5.20;74.20;;;;;;4998248;28;86782;-45
2023/11/21 09:19:22;;;;;;;;;;;5.20;74.10;;;;;;4999401;28;87784;-43
2023/11/21 09:21:49;;;;;;;;;;;5.30;74.20;;;;;;4994233;28;88153;-44
2023/11/21 09:24:14;;;;;;;;;;;5.20;74.30;;;;;;4998835;28;88634;-43
2023/11/21 09:26:40;;;;;;;;;;;5.20;74.10;;;;;;5000652;28;88096;-43
2023/11/21 09:29:05;;;;;;;;;;;5.20;74.40;;;;;;4996654;28;87948;-42
2023/11/21 09:31:33;;;;;;;;;;;5.20;74.30;;;;;;4994506;28;87279;-44
2023/11/21 09:33:59;;;;;;;;;;;5.20;74.60;;;;;;4999707;28;86911;-43
2023/11/21 09:36:26;;;;;;;;;;;5.20;74.60;;;;;;4999713;28;88021;-43
2023/11/21 09:38:53;;;;;;;;;;;5.20;74.50;;;;;;4994815;28;88686;-44
2023/11/21 09:41:23;;;;;;;;;;;5.20;74.40;;;;;;5005924;28;87055;-43
2023/11/21 09:43:52;;;;;;;;;;;5.20;74.40;;;;;;5002803;28;87797;-44
2023/11/21 09:46:21;;;;;;;;;;;5.20;74.50;;;;;;4999425;28;88185;-43
2023/11/21 09:48:51;;;;;;;;;;;5.20;74.40;;;;;;4997671;28;88001;-43
2023/11/21 09:51:19;;;;;;;;;;;5.20;74.70;;;;;;4996500;28;89310;-42
2023/11/21 09:53:46;;;;;;;;;;;5.20;74.60;;;;;;4999958;28;86981;-44
2023/11/21 09:56:13;;;;;;;;;;;5.20;74.50;;;;;;4999955;28;88699;-42
2023/11/21 09:58:39;;;;;;;;;;;5.20;74.50;;;;;;4995462;28;88530;-43
2023/11/21 10:01:07;;;;;;;;;;;5.20;74.60;;;;;;4996801;28;87120;-43
2023/11/21 10:03:35;;;;;;;;;;;5.20;74.20;;;;;;5002579;28;87224;-43
2023/11/21 10:06:01;;;;;;;;;;;5.20;74.60;;;;;;4995798;28;87133;-43
2023/11/21 10:08:28;;;;;;;;;;;5.20;74.60;;;;;;4999969;28;86723;-43
2023/11/21 10:10:54;;;;;;;;;;;5.20;74.60;;;;;;4996687;28;88498;-43
2023/11/21 10:13:20;;;;;;;;;;;5.20;74.80;;;;;;4994510;28;87033;-44
2023/11/21 10:15:49;;;;;;;;;;;5.10;74.70;;;;;;4995979;28;87926;-44
2023/11/21 10:18:15;;;;;;;;;;;5.10;74.90;;;;;;4998155;28;87390;-44
2023/11/21 10:20:41;;;;;;;;;;;5.10;75.10;;;;;;5001064;28;87070;-45
2023/11/21 10:23:11;;;;;;;;;;;5.10;75.30;;;;;;4997960;28;88027;-43
2023/11/21 10:25:36;;;;;;;;;;;5.10;75.10;;;;;;5000415;28;89259;-44
2023/11/21 10:28:05;;;;;;;;;;;5.10;75.30;;;;;;5000938;28;86954;-44
2023/11/21 10:30:32;;;;;;;;;;;5.00;75.30;;;;;;4998114;28;87740;-43
2023/11/21 10:32:59;;;;;;;;;;;5.00;75.40;;;;;;5000981;28;86711;-44
2023/11/21 10:35:24;;;;;;;;;;;5.00;75.30;;;;;;4998520;28;86959;-44
2023/11/21 10:37:59;;;;;;;;;;;5.10;75.50;;;;;;4993529;28;87722;-43
2023/11/21 10:40:27;;;;;;;;;;;5.00;75.30;;;;;;4993787;28;87902;-43
2023/11/21 10:42:53;;;;;;;;;;;5.00;75.50;;;;;;4995489;28;87656;-42
2023/11/21 10:45:18;;;;;;;;;;;5.00;75.50;;;;;;5001960;28;86804;-44
2023/11/21 10:47:44;;;;;;;;;;;5.00;75.70;;;;;;4999356;28;88204;-42
2023/11/21 10:50:11;;;;;;;;;;;5.00;75.80;;;;;;4993920;28;87574;-44
2023/11/21 10:52:47;;;;;;;;;;;5.00;75.70;;;;;;4994308;28;86824;-43
2023/11/21 10:55:23;;;;;;;;;;;5.00;75.70;;;;;;4997767;28;86903;-43
2023/11/21 10:57:50;;;;;;;;;;;5.00;75.70;;;;;;4994176;28;87850;-44
2023/11/21 11:00:18;;;;;;;;;;;5.00;76.10;;;;;;4995178;28;88647;-43
2023/11/21 11:02:47;;;;;;;;;;;5.00;75.90;;;;;;4997749;28;88116;-43
2023/11/21 11:05:14;;;;;;;;;;;5.00;76.00;;;;;;4994612;28;88454;-43
2023/11/21 11:07:42;;;;;;;;;;;5.00;76.10;;;;;;4997468;28;87058;-43
2023/11/21 11:10:14;;;;;;;;;;;5.00;76.10;;;;;;4994205;28;87408;-43
2023/11/21 11:12:41;;;;;;;;;;;5.00;76.10;;;;;;4998602;28;86938;-43
2023/11/21 11:15:09;;;;;;;;;;;5.00;76.30;;;;;;5001680;28;86958;-43
2023/11/21 11:17:38;;;;;;;;;;;5.00;76.20;;;;;;4995852;28;90419;-44
2023/11/21 11:20:06;;;;;;;;;;;5.00;76.30;;;;;;4995072;28;87139;-44
2023/11/21 11:22:48;;;;;;;;;;;5.00;76.20;;;;;;4996415;28;88002;-43
2023/11/21 11:25:25;;;;;;;;;;;5.00;76.20;;;;;;4997602;28;87915;-43
2023/11/21 11:28:11;;;;;;;;;;;5.00;76.40;;;;;;4992806;28;86928;-44
2023/11/21 11:30:55;;;;;;;;;;;5.00;76.20;;;;;;4997499;28;87841;-43
2023/11/21 11:33:32;;;;;;;;;;;5.10;76.40;;;;;;4997763;28;87114;-43
2023/11/21 11:36:07;;;;;;;;;;;5.10;76.50;;;;;;4993236;28;87044;-43
2023/11/21 11:38:33;;;;;;;;;;;5.00;76.40;;;;;;4994794;28;88458;-43
2023/11/21 11:41:02;;;;;;;;;;;5.00;76.50;;;;;;5001097;28;86954;-42
2023/11/21 11:43:28;;;;;;;;;;;5.00;76.40;;;;;;5000811;28;86897;-45
2023/11/21 11:45:58;;;;;;;;;;;5.10;76.50;;;;;;4995860;28;87725;-44
2023/11/21 11:48:24;;;;;;;;;;;5.10;76.50;;;;;;4993307;28;86385;-43
2023/11/21 11:51:08;;;;;;;;;;;5.10;76.50;;;;;;4996521;28;87109;-43
2023/11/21 11:54:00;;;;;;;;;;;5.10;76.60;;;;;;4996519;28;88679;-44
2023/11/21 11:56:27;;;;;;;;;;;5.20;76.60;;;;;;4992854;28;88551;-44
2023/11/21 11:58:53;;;;;;;;;;;5.20;76.70;;;;;;4996230;28;88508;-42
2023/11/21 12:01:19;;;;;;;;;;;5.20;76.60;;;;;;4995845;28;86928;-42
2023/11/21 12:04:05;;;;;;;;;;;5.20;76.60;;;;;;4996537;28;86991;-42
2023/11/21 12:06:33;;;;;;;;;;;5.20;76.30;;;;;;4999515;28;88748;-44
2023/11/21 12:09:01;;;;;;;;;;;5.20;76.50;;;;;;4993610;28;86834;-44
2023/11/21 12:11:30;;;;;;;;;;;5.20;76.60;;;;;;4994291;28;87143;-43
2023/11/21 12:13:56;;;;;;;;;;;5.20;76.60;;;;;;4995171;28;86560;-42
2023/11/21 12:16:23;;;;;;;;;;;5.30;76.50;;;;;;4993235;28;86913;-43
2023/11/21 12:18:48;;;;;;;;;;;5.30;76.80;;;;;;5000695;28;88509;-44
2023/11/21 12:21:14;;;;;;;;;;;5.30;76.40;;;;;;4996469;28;88463;-45
2023/11/21 12:23:40;;;;;;;;;;;5.30;76.40;;;;;;4999709;28;87731;-44
2023/11/21 12:26:06;;;;;;;;;;;5.30;76.60;;;;;;4995207;28;87709;-43
2023/11/21 12:28:31;;;;;;;;;;;5.30;76.40;;;;;;4998857;28;87565;-44
2023/11/21 12:30:57;;;;;;;;;;;5.30;76.80;;;;;;5003355;28;86999;-42
2023/11/21 12:33:23;;;;;;;;;;;5.30;76.50;;;;;;5001755;28;86951;-44
2023/11/21 12:35:48;;;;;;;;;;;5.30;77.20;;;;;;5000428;28;87082;-44
2023/11/21 12:38:16;;;;;;;;;;;5.30;76.80;;;;;;5003359;28;86627;-43
2023/11/21 12:40:41;;;;;;;;;;;5.40;76.70;;;;;;4999897;28;87067;-44
2023/11/21 12:43:07;;;;;;;;;;;5.30;76.80;;;;;;4999177;28;87108;-43
2023/11/21 12:45:33;;;;;;;;;;;5.40;76.60;;;;;;5006672;28;88288;-44
2023/11/21 12:47:59;;;;;;;;;;;5.40;76.80;;;;;;5004533;28;86933;-43
2023/11/21 12:50:33;;;;;;;;;;;5.40;76.70;;;;;;4999328;28;87932;-42
2023/11/21 12:53:19;;;;;;;;;;;5.40;76.70;;;;;;4997127;28;87418;-43
2023/11/21 12:55:49;;;;;;;;;;;5.40;76.70;;;;;;5000307;28;87062;-43
2023/11/21 12:58:15;;;;;;;;;;;5.40;77.20;;;;;;5003413;28;87873;-44
2023/11/21 13:00:47;;;;;;;;;;;5.40;76.80;;;;;;4999391;28;88079;-43
2023/11/21 13:03:16;;;;;;;;;;;5.40;76.90;;;;;;4997143;28;86830;-43
2023/11/21 13:05:44;;;;;;;;;;;5.50;77.00;;;;;;4999276;28;88617;-44
2023/11/21 13:08:12;;;;;;;;;;;5.50;77.30;;;;;;4995627;28;87268;-44
2023/11/21 13:10:39;;;;;;;;;;;5.50;77.10;;;;;;4992816;28;89548;-43
2023/11/21 13:13:05;;;;;;;;;;;5.50;76.90;;;;;;4994585;28;87412;-43
2023/11/21 13:15:32;;;;;;;;;;;5.50;77.10;;;;;;4999730;28;87080;-43
2023/11/21 13:17:58;;;;;;;;;;;5.50;77.10;;;;;;4997068;28;87719;-44
2023/11/21 13:20:27;;;;;;;;;;;5.50;77.20;;;;;;4998093;28;87448;-42
2023/11/21 13:22:57;;;;;;;;;;;5.50;76.90;;;;;;5000098;28;86955;-43
2023/11/21 13:25:23;;;;;;;;;;;5.50;76.90;;;;;;4998620;28;88748;-43
2023/11/21 13:27:49;;;;;;;;;;;5.50;77.30;;;;;;4997096;28;86502;-43
2023/11/21 13:30:15;;;;;;;;;;;5.50;77.20;;;;;;4997394;28;87046;-44
2023/11/21 13:32:45;;;;;;;;;;;5.50;77.40;;;;;;4997880;28;88593;-43
2023/11/21 13:35:20;;;;;;;;;;;5.50;77.20;;;;;;4993569;28;88390;-43
2023/11/21 13:37:50;;;;;;;;;;;5.50;77.30;;;;;;4997096;28;88941;-43
2023/11/21 13:40:19;;;;;;;;;;;5.60;77.30;;;;;;4994576;28;88580;-43
2023/11/21 13:42:45;;;;;;;;;;;5.60;77.40;;;;;;5002341;28;88721;-44
2023/11/21 13:45:12;;;;;;;;;;;5.60;77.30;;;;;;4998080;28;88025;-43
2023/11/21 13:47:38;;;;;;;;;;;5.60;77.40;;;;;;4993196;28;88312;-43
2023/11/21 13:50:06;;;;;;;;;;;5.60;78.00;;;;;;4998436;28;86952;-44
2023/11/21 13:52:33;;;;;;;;;;;5.60;77.10;;;;;;4995392;28;86090;-45
2023/11/21 13:55:02;;;;;;;;;;;5.60;77.50;;;;;;4995884;28;87316;-44
2023/11/21 13:57:28;;;;;;;;;;;5.60;77.30;;;;;;4999181;28;88422;-43
2023/11/21 13:59:54;;;;;;;;;;;5.60;77.30;;;;;;4999742;28;89490;-44
2023/11/21 14:02:27;;;;;;;;;;;5.60;77.40;;;;;;4997450;28;86995;-44
2023/11/21 14:04:59;;;;;;;;;;;5.60;77.50;;;;;;5000222;28;87951;-43
2023/11/21 14:07:31;;;;;;;;;;;5.60;77.50;;;;;;4995351;28;86823;-44
2023/11/21 14:09:58;;;;;;;;;;;5.60;77.20;;;;;;4995041;28;87661;-43
2023/11/21 14:12:24;;;;;;;;;;;5.70;77.30;;;;;;4999142;28;88484;-42
2023/11/21 14:14:49;;;;;;;;;;;5.70;77.40;;;;;;4997619;28;87056;-44
2023/11/21 14:17:15;;;;;;;;;;;5.70;77.40;;;;;;4996662;28;86222;-43
2023/11/21 14:19:43;;;;;;;;;;;5.60;77.30;;;;;;5001771;28;87182;-44
2023/11/21 14:22:09;;;;;;;;;;;5.70;77.50;;;;;;4996353;28;87249;-43
2023/11/21 14:24:35;;;;;;;;;;;5.70;77.50;;;;;;4995636;28;87857;-44
2023/11/21 14:27:00;;;;;;;;;;;5.70;77.40;;;;;;5004263;28;87435;-44
2023/11/21 14:29:27;;;;;;;;;;;5.70;77.40;;;;;;4999041;28;86999;-43